FXE weather

Fort Lauderdale Executive Airport
Fort Lauderdale, Florida, United States

Public forecast

Using degrees Fahrenheit for public forecast. Weather courtesy of forecast.io.

METAR (pilot weather report)

Retrieved 2019/06/19 19:53 UTC (17 minutes ago):

KFXE 191953Z COR 14012KT 10SM SCT050 TS 30/24 A2999 RMK AO2 LTG DSNT SW-N SLP157 T03000239

TAF (pilot weather forecast)

Retrieved 2019/06/19 18:24 UTC (2 hours ago):

TAF KFXE 191722Z 1918/2018 14012KT P6SM VCTS SCT025CB BKN035 BKN080 FM192200 19008KT P6SM SCT030 SCT070 BKN250 FM200100 VRB03KT P6SM SCT020 BKN250 FM201400 18010KT P6SM SCT025 SCT070 SCT250